Terminal Aerodrome Forecast
Issued by NWS Jackson, MS

Home | Current Version | Previous Version | Text Only | Print | Product List | Glossary On
Versions: 1 2 3 4 5 6 7 8 9 10 11 12 13 14
000
FTUS44 KMEG 011354 AAA
TAFTUP
TAF AMD
KTUP 011354Z 0114/0212 22005KT P6SM VCSH BKN009 OVC012
     FM011500 22007KT 6SM -SHRA BKN006 OVC010
      TEMPO 0119/0123 4SM SHRA BR SCT006
     FM020100 09005KT 6SM -SHRA OVC006
     FM020800 03010G16KT P6SM VCSH SCT006 OVC010=

USA.gov is the U.S. government's official web portal to all federal, state and local government web resources and services.